Time;durP1;ratioP1;P1;durP2;ratioP2;P2;SDS_P1;SDS_P2;PMS_P1;PMS_P2;Temp;Humidity;BMP_temperature;BMP_pressure;BME280_temperature;BME280_humidity;BME280_pressure;Samples;Min_cycle;Max_cycle;Signal;HPM_P1;HPM_P2
2022/01/18 00:00:11;;;;;;;28.67;3.47;;;0.30;99.90;;;-1.51;100.00;102524.13;4906306;28;20027;-77
2022/01/18 00:02:39;;;;;;;22.77;3.22;;;0.20;99.90;;;-1.55;100.00;102524.84;4906928;28;20435;-77
2022/01/18 00:05:12;;;;;;;39.97;4.15;;;0.20;99.90;;;-1.53;100.00;102522.31;4857738;28;20044;-77
2022/01/18 00:07:39;;;;;;;30.13;4.38;;;0.20;99.90;;;-1.51;100.00;102531.88;4892585;28;20054;-77
2022/01/18 00:10:05;;;;;;;23.48;2.97;;;0.20;99.90;;;-1.50;100.00;102540.50;4885342;28;20035;-77
2022/01/18 00:21:13;;;;;;;26.58;4.18;;;0.30;99.90;;;-1.47;100.00;102566.41;4884974;28;20090;-77
2022/01/18 00:23:40;;;;;;;41.33;4.43;;;0.30;99.90;;;-1.47;100.00;102569.91;4898095;28;20030;-76
2022/01/18 00:26:12;;;;;;;24.08;3.25;;;0.30;99.90;;;-1.46;100.00;102581.97;4907371;28;20031;-77
2022/01/18 00:28:38;;;;;;;24.52;3.63;;;0.30;99.90;;;-1.43;100.00;102577.72;4862121;28;20031;-77
2022/01/18 00:31:34;;;;;;;38.75;4.07;;;0.30;99.90;;;-1.42;100.00;102582.09;4873113;28;20447;-77
2022/01/18 00:39:21;;;;;;;40.58;4.15;;;0.30;99.90;;;-1.42;100.00;102579.50;4873920;28;20684;-78
2022/01/18 00:41:48;;;;;;;25.00;3.28;;;0.30;99.90;;;-1.46;100.00;102576.81;4880257;28;20035;-77
2022/01/18 00:44:14;;;;;;;38.38;3.78;;;0.30;99.90;;;-1.42;100.00;102570.03;4880653;28;20036;-77
2022/01/18 00:46:45;;;;;;;30.35;3.78;;;0.30;99.90;;;-1.40;100.00;102572.66;4883188;28;20475;-77
2022/01/18 00:49:13;;;;;;;39.55;4.50;;;0.40;99.90;;;-1.37;100.00;102577.94;4888900;28;20519;-78
2022/01/18 00:51:41;;;;;;;42.75;4.88;;;0.40;99.90;;;-1.34;100.00;102590.94;4907318;28;20066;-77
2022/01/18 00:54:20;;;;;;;31.17;4.20;;;0.40;99.90;;;-1.34;100.00;102598.69;4864454;28;21012;-78
2022/01/18 00:56:48;;;;;;;37.60;4.38;;;0.40;99.90;;;-1.33;100.00;102600.47;4859521;28;20043;-78
2022/01/18 00:59:16;;;;;;;33.05;4.13;;;0.40;99.90;;;-1.33;100.00;102608.22;4898702;28;20023;-78
2022/01/18 01:01:42;;;;;;;35.95;3.95;;;0.40;99.90;;;-1.34;100.00;102606.44;4863454;28;20071;-78
2022/01/18 01:04:08;;;;;;;26.70;3.35;;;0.40;99.90;;;-1.37;100.00;102607.25;4869907;28;20060;-78
2022/01/18 01:06:35;;;;;;;30.77;3.58;;;0.40;99.90;;;-1.38;100.00;102602.00;4878650;28;20463;-78
2022/01/18 01:09:03;;;;;;;33.67;4.32;;;0.40;99.90;;;-1.41;100.00;102594.16;4848681;28;20693;-78
2022/01/18 01:11:39;;;;;;;22.98;2.72;;;0.40;99.90;;;-1.45;100.00;102594.09;4870083;28;20023;-78
2022/01/18 01:14:16;;;;;;;29.13;3.50;;;0.40;99.90;;;-1.50;100.00;102603.38;4869538;28;20031;-78
2022/01/18 01:17:15;;;;;;;31.02;3.08;;;0.30;99.90;;;-1.50;100.00;102613.69;4882743;28;20043;-76
2022/01/18 01:19:50;;;;;;;24.48;3.35;;;0.30;99.90;;;-1.50;100.00;102603.38;4882624;28;20027;-77
2022/01/18 01:34:36;;;;;;;50.63;4.47;;;0.20;99.90;;;-1.60;100.00;102618.50;4930998;28;20039;-77
2022/01/18 01:44:19;;;;;;;38.95;4.65;;;-0.20;99.90;;;-2.08;100.00;102591.91;4899736;28;20268;-77
2022/01/18 01:46:45;;;;;;;39.67;3.85;;;-0.40;99.90;;;-2.31;100.00;102591.13;4891670;28;20044;-77
2022/01/18 01:49:14;;;;;;;34.45;3.15;;;-0.50;99.90;;;-2.44;100.00;102595.75;4876413;28;20111;-77
2022/01/18 01:51:49;;;;;;;35.88;2.83;;;-0.60;99.90;;;-2.57;100.00;102605.66;4877784;28;20026;-77
2022/01/18 01:54:16;;;;;;;30.40;2.97;;;-0.70;99.90;;;-2.63;100.00;102605.41;4906044;28;20023;-76
2022/01/18 01:56:43;;;;;;;36.03;2.95;;;-0.80;99.90;;;-2.68;100.00;102617.22;4894946;28;20518;-77
2022/01/18 01:59:10;;;;;;;30.52;3.15;;;-0.90;99.90;;;-2.70;100.00;102631.75;4898213;28;20392;-76
2022/01/18 02:01:47;;;;;;;25.15;3.13;;;-0.90;99.90;;;-2.71;100.00;102642.91;4914573;28;20027;-76
2022/01/18 02:04:15;;;;;;;29.73;2.85;;;-0.90;99.90;;;-2.72;100.00;102646.28;4922574;28;20047;-77
2022/01/18 02:06:41;;;;;;;44.83;3.28;;;-0.90;99.90;;;-2.75;100.00;102649.63;4896710;28;20024;-77
2022/01/18 02:09:07;;;;;;;22.73;2.83;;;-1.00;99.90;;;-2.77;100.00;102653.84;4913025;28;20050;-76
2022/01/18 02:11:35;;;;;;;49.53;3.00;;;-1.00;99.90;;;-2.87;100.00;102659.50;4855563;28;20049;-77
2022/01/18 02:14:02;;;;;;;35.85;3.00;;;-1.10;99.90;;;-2.99;100.00;102653.84;4883491;28;20049;-76
2022/01/18 02:22:05;;;;;;;36.53;3.83;;;-1.30;99.90;;;-3.22;100.00;102652.91;4913861;28;20624;-76
2022/01/18 02:24:31;;;;;;;28.60;2.70;;;-1.30;99.90;;;-3.22;100.00;102651.19;4912661;28;20041;-76
2022/01/18 02:27:04;;;;;;;28.48;3.08;;;-1.40;99.90;;;-3.19;100.00;102647.91;4875181;28;20035;-77
2022/01/18 02:29:30;;;;;;;40.30;3.42;;;-1.30;99.90;;;-3.13;100.00;102656.75;4929505;28;20142;-76
2022/01/18 02:31:57;;;;;;;41.03;3.65;;;-1.30;99.90;;;-3.05;100.00;102651.00;4920422;28;20023;-77
2022/01/18 02:34:24;;;;;;;38.42;3.05;;;-1.20;99.90;;;-2.98;100.00;102653.91;4912631;28;20118;-77
2022/01/18 02:36:53;;;;;;;40.90;3.17;;;-1.20;99.90;;;-2.91;100.00;102650.75;4902685;28;20154;-76
2022/01/18 02:39:26;;;;;;;30.60;3.42;;;-1.10;99.90;;;-2.80;100.00;102650.31;4909536;28;20488;-76
2022/01/18 02:41:59;;;;;;;41.42;4.35;;;-1.00;99.90;;;-2.74;100.00;102646.25;4895243;28;20036;-77
2022/01/18 02:44:27;;;;;;;62.08;3.78;;;-1.00;99.90;;;-2.69;100.00;102637.00;4887209;28;20107;-77
2022/01/18 02:46:54;;;;;;;46.65;3.50;;;-0.90;99.90;;;-2.66;100.00;102640.50;4919903;28;20043;-76
2022/01/18 02:49:23;;;;;;;36.45;3.75;;;-0.90;99.90;;;-2.67;100.00;102638.75;4895483;28;20408;-76
2022/01/18 02:51:50;;;;;;;46.83;4.18;;;-0.90;99.90;;;-2.71;100.00;102641.22;4866174;28;20095;-76
2022/01/18 02:54:17;;;;;;;33.47;2.78;;;-0.90;99.90;;;-2.75;100.00;102636.75;4884156;28;20126;-76
2022/01/18 02:56:56;;;;;;;34.35;3.08;;;-1.00;99.90;;;-2.78;100.00;102649.53;4921959;28;20031;-76
2022/01/18 02:59:32;;;;;;;32.38;3.28;;;-1.00;99.90;;;-2.85;100.00;102649.22;4919991;28;20106;-76
2022/01/18 03:04:47;;;;;;;;;;;-1.10;99.90;;;-2.94;100.00;102654.91;4881592;28;20098;-76
2022/01/18 03:07:15;;;;;;;44.70;3.10;;;-1.10;99.90;;;-2.94;100.00;102662.63;4897559;28;19918;-76
2022/01/18 03:09:41;;;;;;;35.65;3.08;;;-1.10;99.90;;;-2.93;100.00;102664.41;4899303;28;20032;-76
2022/01/18 03:12:10;;;;;;;51.03;3.95;;;-1.10;99.90;;;-2.91;100.00;102670.50;4922176;28;20465;-77
2022/01/18 03:14:38;;;;;;;52.03;5.03;;;-1.10;99.90;;;-2.89;100.00;102680.06;4884243;28;20082;-76
2022/01/18 03:17:09;;;;;;;52.72;3.88;;;-1.10;99.90;;;-2.84;100.00;102687.97;4885448;28;20023;-75
2022/01/18 03:19:36;;;;;;;36.45;4.85;;;-1.10;99.90;;;-2.80;100.00;102686.41;4913756;28;20023;-76
2022/01/18 03:22:04;;;;;;;44.05;4.07;;;-1.00;99.90;;;-2.76;100.00;102686.56;4895449;28;20452;-75
2022/01/18 03:29:41;;;;;;;47.47;4.15;;;-0.90;99.90;;;-2.70;100.00;102668.78;4919787;28;20070;-76
2022/01/18 03:32:08;;;;;;;36.45;3.22;;;-1.00;99.90;;;-2.70;100.00;102673.03;4911315;28;20034;-76
2022/01/18 03:34:34;;;;;;;44.63;4.40;;;-1.00;99.90;;;-2.76;100.00;102668.53;4913974;28;20035;-76
2022/01/18 03:37:02;;;;;;;71.82;5.30;;;-1.00;99.90;;;-2.82;100.00;102670.84;4907152;28;20820;-75
2022/01/18 03:39:27;;;;;;;46.50;4.03;;;-1.10;99.90;;;-2.85;100.00;102669.84;4912393;28;20110;-75
2022/01/18 03:42:15;;;;;;;50.47;4.40;;;-1.10;99.90;;;-2.90;100.00;102667.09;4912187;28;20031;-75
2022/01/18 03:44:39;;;;;;;43.35;3.75;;;-1.20;99.90;;;-2.97;100.00;102675.41;4906364;28;20035;-75
2022/01/18 03:47:05;;;;;;;52.85;5.25;;;-1.20;99.90;;;-3.05;100.00;102681.94;4930973;28;20583;-75
2022/01/18 03:49:36;;;;;;;48.13;3.80;;;-1.20;99.90;;;-3.04;100.00;102696.59;4925800;28;20027;-76
2022/01/18 03:52:02;;;;;;;40.63;4.05;;;-1.20;99.90;;;-2.98;100.00;102697.72;4915396;28;20039;-75
2022/01/18 03:54:30;;;;;;;43.75;4.30;;;-1.20;99.90;;;-2.96;100.00;102695.19;4918681;28;20147;-75
2022/01/18 03:56:56;;;;;;;39.13;3.95;;;-1.20;99.90;;;-2.96;100.00;102692.63;4917011;28;20482;-76
2022/01/18 03:59:22;;;;;;;51.22;3.72;;;-1.20;99.90;;;-3.03;100.00;102696.66;4931831;28;20103;-76
2022/01/18 04:01:48;;;;;;;49.03;4.10;;;-1.30;99.90;;;-3.12;100.00;102704.00;4914672;28;20024;-75
2022/01/18 04:04:17;;;;;;;49.33;3.67;;;-1.40;99.90;;;-3.18;100.00;102701.16;4924401;28;20044;-74
2022/01/18 04:06:45;;;;;;;42.08;3.42;;;-1.40;99.90;;;-3.22;100.00;102713.03;4920328;28;22947;-76
2022/01/18 04:09:11;;;;;;;42.92;3.25;;;-1.50;99.90;;;-3.29;100.00;102705.88;4927464;28;20039;-75
2022/01/18 04:11:36;;;;;;;38.42;3.15;;;-1.50;99.90;;;-3.41;100.00;102700.19;4938052;28;20172;-75
2022/01/18 04:14:02;;;;;;;31.20;3.10;;;-1.70;99.90;;;-3.65;100.00;102698.38;4913211;28;20591;-75
2022/01/18 04:16:28;;;;;;;31.02;3.20;;;-1.80;99.90;;;-3.82;100.00;102707.00;4932236;28;20020;-75
2022/01/18 04:19:10;;;;;;;44.05;3.53;;;-1.90;99.90;;;-3.93;100.00;102719.41;4925184;28;20700;-75
2022/01/18 04:27:07;;;;;;;30.55;2.88;;;-2.20;99.90;;;-4.12;100.00;102702.28;4919575;28;20039;-75
2022/01/18 04:29:33;;;;;;;52.63;3.45;;;-2.30;99.90;;;-4.21;100.00;102707.88;4905208;28;20040;-76
2022/01/18 04:31:59;;;;;;;42.00;2.97;;;-2.30;99.90;;;-4.24;100.00;102719.72;4922193;28;20091;-74
2022/01/18 04:34:25;;;;;;;48.70;3.55;;;-2.30;99.90;;;-4.24;100.00;102720.59;4924661;28;20085;-75
2022/01/18 04:36:51;;;;;;;39.78;4.60;;;-2.40;99.90;;;-4.21;100.00;102717.28;4938232;28;20662;-75
2022/01/18 04:39:17;;;;;;;48.40;4.03;;;-2.40;99.90;;;-4.20;100.00;102714.78;4906695;28;20064;-74
2022/01/18 04:41:45;;;;;;;56.60;4.25;;;-2.30;99.90;;;-4.20;100.00;102713.91;4892373;28;20031;-74
2022/01/18 04:49:43;;;;;;;40.78;4.28;;;-2.30;99.90;;;-4.17;100.00;102698.59;4929796;28;20058;-75
2022/01/18 04:52:10;;;;;;;43.35;4.88;;;-2.30;99.90;;;-4.20;100.00;102712.22;4927753;28;20055;-75
2022/01/18 04:54:39;;;;;;;42.47;4.28;;;-2.30;99.90;;;-4.19;100.00;102714.00;4938214;28;20445;-75
2022/01/18 04:59:31;;;;;;;46.10;3.63;;;-2.30;99.90;;;-4.19;100.00;102710.50;4916270;28;20201;-74
2022/01/18 05:01:57;;;;;;;41.42;3.75;;;-2.30;99.90;;;-4.19;100.00;102700.22;4928354;28;20485;-74
2022/01/18 05:04:23;;;;;;;37.75;3.75;;;-2.30;99.90;;;-4.20;100.00;102706.19;4929021;28;20048;-75
2022/01/18 05:06:51;;;;;;;44.25;3.95;;;-2.30;99.90;;;-4.19;100.00;102714.00;4923499;28;20269;-74
2022/01/18 05:09:17;;;;;;;43.45;4.82;;;-2.30;99.90;;;-4.12;100.00;102728.00;4936922;28;20155;-74
2022/01/18 05:12:05;;;;;;;44.92;3.80;;;-2.30;99.90;;;-4.06;100.00;102730.88;4923464;28;20607;-75
2022/01/18 05:14:32;;;;;;;;;;;-2.30;99.90;;;-4.00;100.00;102736.25;4924100;28;20532;-74
2022/01/18 05:17:41;;;;;;;57.72;5.38;;;-2.10;99.90;;;-3.88;100.00;102738.53;4923990;28;20272;-75
2022/01/18 05:20:26;;;;;;;43.17;3.78;;;-2.00;99.90;;;-3.73;100.00;102736.63;4918156;28;20041;-75
2022/01/18 05:23:00;;;;;;;49.00;3.67;;;-1.90;99.90;;;-3.64;100.00;102731.00;4931382;28;20037;-75
2022/01/18 05:25:29;;;;;;;65.60;4.80;;;-1.80;99.90;;;-3.59;100.00;102729.50;4927573;28;20032;-75
2022/01/18 05:27:57;;;;;;;54.92;4.68;;;-1.80;99.90;;;-3.53;100.00;102734.06;4921812;28;20035;-75
2022/01/18 05:30:24;;;;;;;57.20;4.00;;;-1.80;99.90;;;-3.54;100.00;102746.06;4916472;28;20122;-75
2022/01/18 05:32:50;;;;;;;47.28;3.88;;;-1.80;99.90;;;-3.57;100.00;102737.31;4902520;28;20050;-75
2022/01/18 05:35:19;;;;;;;51.92;4.50;;;-1.80;99.90;;;-3.63;100.00;102745.63;4922564;28;20027;-75
2022/01/18 05:37:48;;;;;;;56.35;4.00;;;-1.80;99.90;;;-3.66;100.00;102748.09;4913977;28;20034;-75
2022/01/18 05:40:16;;;;;;;55.65;5.20;;;-1.90;99.90;;;-3.66;100.00;102749.78;4908455;28;20087;-74
2022/01/18 05:42:42;;;;;;;48.50;4.85;;;-1.80;99.90;;;-3.67;100.00;102753.16;4907213;28;20046;-75
2022/01/18 05:45:10;;;;;;;48.45;4.43;;;-1.90;99.90;;;-3.67;100.00;102766.94;4922815;28;20208;-75
2022/01/18 05:47:40;;;;;;;55.22;4.47;;;-1.90;99.90;;;-3.67;100.00;102766.94;4928334;28;20170;-75
2022/01/18 05:50:10;;;;;;;55.70;5.45;;;-1.90;99.90;;;-3.68;100.00;102757.44;4906636;28;20087;-75
2022/01/18 05:52:38;;;;;;;57.00;3.90;;;-1.90;99.90;;;-3.75;100.00;102760.56;4908552;28;20758;-75
2022/01/18 05:55:08;;;;;;;40.42;3.55;;;-2.00;99.90;;;-3.84;100.00;102762.72;4907827;28;20546;-75
2022/01/18 05:57:34;;;;;;;46.83;4.00;;;-2.00;99.90;;;-3.91;100.00;102761.53;4921038;28;20087;-75
2022/01/18 06:00:04;;;;;;;35.08;3.70;;;-2.10;99.90;;;-3.96;100.00;102756.19;4921361;28;20035;-74
2022/01/18 06:07:48;;;;;;;31.52;3.17;;;-2.30;99.90;;;-4.26;100.00;102762.50;4917397;28;20043;-75
2022/01/18 06:10:14;;;;;;;37.65;3.20;;;-2.40;99.90;;;-4.44;100.00;102771.09;4921726;28;20031;-74
2022/01/18 06:12:41;;;;;;;48.25;3.45;;;-2.50;99.90;;;-4.54;100.00;102768.91;4887055;28;20469;-75
2022/01/18 06:15:08;;;;;;;37.95;3.67;;;-2.50;99.90;;;-4.51;100.00;102770.72;4913511;28;20404;-74
2022/01/18 06:17:34;;;;;;;61.15;4.25;;;-2.50;99.90;;;-4.42;100.00;102779.78;4905658;28;20106;-76
2022/01/18 06:20:00;;;;;;;30.33;3.47;;;-2.50;99.90;;;-4.28;100.00;102789.84;4928837;28;20089;-75
2022/01/18 06:22:26;;;;;;;57.05;4.50;;;-2.40;99.90;;;-4.18;100.00;102789.47;4905505;28;20613;-74
2022/01/18 06:24:52;;;;;;;38.15;3.75;;;-2.30;99.90;;;-4.12;100.00;102787.19;4921555;28;20039;-75
2022/01/18 06:27:18;;;;;;;49.15;3.97;;;-2.30;99.90;;;-4.01;100.00;102786.00;4905872;28;20020;-74
2022/01/18 06:29:44;;;;;;;39.83;4.03;;;-2.10;99.90;;;-3.93;100.00;102789.81;4919441;28;20032;-74
2022/01/18 06:32:10;;;;;;;56.63;5.20;;;-2.10;99.90;;;-3.86;100.00;102795.25;4935916;28;20066;-75
2022/01/18 06:34:36;;;;;;;55.47;3.88;;;-2.00;99.90;;;-3.81;100.00;102804.03;4929537;28;20038;-75
2022/01/18 06:37:04;;;;;;;50.67;5.20;;;-1.90;99.90;;;-3.78;100.00;102807.66;4928355;28;20035;-75
2022/01/18 06:39:32;;;;;;;56.35;3.67;;;-2.00;99.90;;;-3.72;100.00;102814.75;4903633;28;20073;-74
2022/01/18 06:41:57;;;;;;;36.80;3.70;;;-1.90;99.90;;;-3.73;100.00;102806.16;4912430;28;20153;-74
2022/01/18 06:44:24;;;;;;;47.40;3.70;;;-1.90;99.90;;;-3.72;100.00;102807.03;4897290;28;20092;-74
2022/01/18 06:46:51;;;;;;;36.63;4.25;;;-1.90;99.90;;;-3.69;100.00;102814.91;4936216;28;20131;-74
2022/01/18 06:49:17;;;;;;;52.65;4.65;;;-1.90;99.90;;;-3.67;100.00;102820.09;4922601;28;20028;-74
2022/01/18 06:51:42;;;;;;;54.42;4.55;;;-1.90;99.90;;;-3.64;100.00;102815.09;4923668;28;20072;-75
2022/01/18 06:54:14;;;;;;;53.97;4.55;;;-1.90;99.90;;;-3.59;100.00;102817.06;4928781;28;20511;-75
2022/01/18 06:56:44;;;;;;;67.93;4.93;;;-1.80;99.90;;;-3.51;100.00;102815.72;4921321;28;20032;-75
2022/01/18 06:59:11;;;;;;;64.30;4.78;;;-1.70;99.90;;;-3.41;100.00;102826.41;4922545;28;20652;-75
2022/01/18 07:01:37;;;;;;;82.60;6.22;;;-1.60;99.90;;;-3.31;100.00;102833.75;4937716;28;20087;-74
2022/01/18 07:04:03;;;;;;;62.45;5.38;;;-1.60;99.90;;;-3.25;100.00;102838.31;4922200;28;20094;-75
2022/01/18 07:06:29;;;;;;;62.83;5.25;;;-1.50;99.90;;;-3.22;100.00;102841.88;4928757;28;20115;-74
2022/01/18 07:08:55;;;;;;;63.63;4.95;;;-1.50;99.90;;;-3.22;100.00;102839.28;4937551;28;20483;-75
2022/01/18 07:11:21;;;;;;;55.30;4.65;;;-1.50;99.90;;;-3.24;100.00;102830.66;4963731;23;20042;-75
2022/01/18 07:13:47;;;;;;;56.03;4.95;;;-1.50;99.90;;;-3.27;100.00;102827.03;4934139;28;21221;-76
2022/01/18 07:16:13;;;;;;;80.22;5.10;;;-1.50;99.90;;;-3.29;100.00;102832.13;4932959;28;20089;-75
2022/01/18 07:18:39;;;;;;;78.57;4.70;;;-1.50;99.90;;;-3.31;100.00;102850.06;4933582;28;20031;-76
2022/01/18 07:21:06;;;;;;;47.20;3.88;;;-1.50;99.90;;;-3.37;100.00;102855.00;4941724;28;20471;-76
2022/01/18 07:23:34;;;;;;;53.25;4.38;;;-1.60;99.90;;;-3.33;100.00;102866.28;4950025;28;20873;-76
2022/01/18 07:26:00;;;;;;;47.47;4.05;;;-1.50;99.90;;;-3.31;100.00;102857.81;4953798;28;20088;-75
2022/01/18 07:28:26;;;;;;;51.30;6.20;;;-1.50;99.90;;;-3.25;100.00;102856.34;4947980;28;20026;-76
2022/01/18 07:30:52;;;;;;;62.38;5.82;;;-1.50;99.90;;;-3.27;100.00;102851.09;4956131;28;20030;-76
2022/01/18 07:33:22;;;;;;;48.47;4.28;;;-1.50;99.90;;;-3.28;100.00;102846.78;4965027;28;20392;-76
2022/01/18 07:35:49;;;;;;;60.50;5.30;;;-1.60;99.90;;;-3.31;100.00;102851.78;4959601;28;20030;-76
2022/01/18 07:38:17;;;;;;;38.55;3.83;;;-1.60;99.90;;;-3.28;100.00;102859.66;4973345;28;20038;-76
2022/01/18 07:40:49;;;;;;;48.17;4.57;;;-1.60;99.90;;;-3.25;100.00;102859.78;4920346;28;20023;-75
2022/01/18 07:43:18;;;;;;;42.65;4.63;;;-1.60;99.90;;;-3.31;100.00;102875.84;4951889;28;20023;-75
2022/01/18 07:45:46;;;;;;;63.78;6.80;;;-1.60;99.90;;;-3.23;100.00;102877.91;4952581;28;20039;-75
2022/01/18 07:48:13;;;;;;;68.35;5.85;;;-1.50;99.90;;;-3.11;100.00;102875.84;4937945;28;20438;-75
2022/01/18 07:50:41;;;;;;;65.03;5.53;;;-1.40;99.90;;;-3.03;100.00;102868.47;4969360;28;20532;-76
2022/01/18 07:53:07;;;;;;;55.47;4.82;;;-1.30;99.90;;;-2.92;100.00;102874.97;4929914;28;20030;-74
2022/01/18 07:55:34;;;;;;;64.68;6.05;;;-1.30;99.90;;;-2.79;100.00;102872.09;4942400;28;20074;-76
2022/01/18 07:58:00;;;;;;;68.15;5.22;;;-1.20;99.90;;;-2.67;100.00;102866.59;4952363;28;20050;-75
2022/01/18 08:00:29;;;;;;;53.42;5.85;;;-1.10;99.90;;;-2.54;100.00;102873.13;4961423;28;20074;-76
2022/01/18 08:02:55;;;;;;;52.78;4.70;;;-1.00;99.90;;;-2.52;100.00;102866.34;4937339;28;20026;-75
2022/01/18 08:05:22;;;;;;;56.15;4.70;;;-1.00;99.90;;;-2.54;100.00;102862.81;4935587;28;20121;-76
2022/01/18 08:07:48;;;;;;;45.28;4.03;;;-1.00;99.90;;;-2.52;100.00;102858.63;4933059;28;20027;-75
2022/01/18 08:10:18;;;;;;;49.00;4.35;;;-1.00;99.90;;;-2.48;100.00;102857.91;4941527;28;20081;-75
2022/01/18 08:12:46;;;;;;;60.63;5.28;;;-0.90;99.90;;;-2.40;100.00;102864.25;4953165;28;20110;-76
2022/01/18 08:15:18;;;;;;;59.25;5.03;;;-0.80;99.90;;;-2.24;100.00;102870.06;4944574;28;20574;-76
2022/01/18 08:17:48;;;;;;;65.78;6.82;;;-0.70;99.90;;;-2.12;100.00;102884.31;4943131;28;20043;-76
2022/01/18 08:20:16;;;;;;;65.90;5.43;;;-0.60;99.90;;;-1.90;100.00;102883.50;4960626;28;20030;-75
2022/01/18 08:22:44;;;;;;;54.75;6.18;;;-0.40;99.90;;;-1.67;100.00;102886.06;4951364;28;20042;-75
2022/01/18 08:25:16;;;;;;;74.20;6.50;;;-0.30;99.90;;;-1.51;100.00;102883.25;4949174;28;20042;-75
2022/01/18 08:27:43;;;;;;;45.50;5.40;;;-0.10;99.90;;;-1.30;100.00;102877.13;4951212;28;20643;-76
2022/01/18 08:30:12;;;;;;;61.78;6.13;;;0.10;99.90;;;-1.15;100.00;102876.78;4942244;28;20038;-75
2022/01/18 08:32:39;;;;;;;59.90;6.55;;;0.20;99.90;;;-0.98;100.00;102883.44;4927976;28;20079;-75
2022/01/18 08:35:08;;;;;;;73.78;6.38;;;0.40;99.90;;;-0.81;100.00;102888.34;4954246;28;20054;-75
2022/01/18 08:37:35;;;;;;;65.90;7.32;;;0.50;99.90;;;-0.73;100.00;102887.78;4960488;28;20022;-75
2022/01/18 08:40:02;;;;;;;57.92;5.88;;;0.60;99.90;;;-0.78;100.00;102886.72;4942339;28;20027;-75
2022/01/18 08:42:29;;;;;;;72.43;6.75;;;0.60;99.90;;;-0.80;100.00;102890.97;4944535;28;20483;-75
2022/01/18 08:44:56;;;;;;;53.55;7.45;;;0.70;99.90;;;-0.78;100.00;102884.16;4960434;28;20042;-76
2022/01/18 08:47:24;;;;;;;66.32;6.25;;;0.70;99.90;;;-0.76;100.00;102898.00;4953891;28;20188;-76
2022/01/18 08:49:51;;;;;;;58.03;6.50;;;0.70;99.90;;;-0.83;100.00;102890.88;4967921;28;20034;-75
2022/01/18 08:52:18;;;;;;;60.20;7.30;;;0.70;99.90;;;-0.80;100.00;102895.28;4954769;28;20073;-75
2022/01/18 08:54:44;;;;;;;78.32;7.70;;;0.70;99.90;;;-0.84;100.00;102910.69;4952491;28;20029;-75
2022/01/18 08:57:12;;;;;;;65.65;6.28;;;0.70;99.90;;;-0.78;100.00;102912.59;4953067;28;20035;-75
2022/01/18 08:59:41;;;;;;;69.85;6.80;;;0.70;99.90;;;-0.72;100.00;102933.50;4948799;28;20062;-75
2022/01/18 09:02:10;;;;;;;55.75;6.63;;;0.80;99.90;;;-0.67;100.00;102942.34;4957693;28;20042;-75
2022/01/18 09:04:39;;;;;;;68.00;6.88;;;0.80;99.90;;;-0.58;100.00;102943.47;4947892;28;20045;-75
2022/01/18 09:07:09;;;;;;;94.68;7.75;;;0.90;99.90;;;-0.51;100.00;102935.09;4940468;28;20106;-75
2022/01/18 09:09:41;;;;;;;67.70;6.78;;;1.00;99.90;;;-0.39;100.00;102937.22;4951214;28;20034;-76
2022/01/18 09:12:17;;;;;;;74.45;6.82;;;1.00;99.90;;;-0.32;100.00;102932.31;4943858;28;20523;-75
2022/01/18 09:14:52;;;;;;;68.03;7.10;;;1.10;99.90;;;-0.24;100.00;102948.09;4941013;28;20039;-75
2022/01/18 09:17:21;;;;;;;63.03;6.78;;;1.20;99.90;;;-0.16;100.00;102946.66;4960902;28;20102;-75
2022/01/18 09:19:50;;;;;;;56.72;6.43;;;1.30;99.90;;;-0.07;100.00;102952.13;4958329;28;20030;-75
2022/01/18 09:22:16;;;;;;;66.57;7.10;;;1.40;99.90;;;0.03;100.00;102948.13;4954091;28;20025;-75
2022/01/18 09:24:45;;;;;;;63.78;6.22;;;1.50;99.90;;;0.11;100.00;102946.69;4960076;28;20056;-75
2022/01/18 09:27:11;;;;;;;65.35;6.30;;;1.50;99.90;;;0.14;100.00;102949.34;4963782;28;20084;-76
2022/01/18 09:29:39;;;;;;;55.92;6.43;;;1.60;99.90;;;0.19;100.00;102955.59;4960219;28;20041;-75
2022/01/18 09:32:08;;;;;;;66.35;7.07;;;1.60;99.90;;;0.27;100.00;102955.81;4967341;28;20267;-75
2022/01/18 09:34:41;;;;;;;75.97;6.68;;;1.70;99.90;;;0.32;100.00;102949.03;4941751;28;20109;-75
2022/01/18 09:37:10;;;;;;;74.50;6.75;;;1.70;99.90;;;0.39;100.00;102960.50;4928239;28;20039;-76
2022/01/18 09:39:39;;;;;;;66.25;6.68;;;1.80;99.90;;;0.45;100.00;102965.00;4959527;28;20029;-75
2022/01/18 09:42:11;;;;;;;57.50;6.95;;;1.80;99.90;;;0.50;100.00;102961.72;4961652;23;20046;-75
2022/01/18 09:44:39;;;;;;;63.20;6.22;;;1.90;99.90;;;0.57;100.00;102952.41;4926875;28;20042;-75
2022/01/18 09:47:08;;;;;;;63.08;7.90;;;2.00;99.90;;;0.64;100.00;102958.66;4944352;28;20096;-75
2022/01/18 09:49:41;;;;;;;62.85;7.03;;;2.10;99.90;;;0.73;100.00;102964.13;4952274;28;20429;-75
2022/01/18 09:52:07;;;;;;;51.50;7.15;;;2.10;99.90;;;0.80;100.00;102966.09;4946083;28;20020;-76
2022/01/18 09:54:33;;;;;;;65.80;8.02;;;2.20;99.90;;;0.89;100.00;102981.03;4941385;28;20045;-76
2022/01/18 09:56:59;;;;;;;65.38;7.85;;;2.30;99.90;;;0.98;100.00;102982.16;4931749;28;20369;-75
2022/01/18 09:59:25;;;;;;;61.05;8.60;;;2.40;99.90;;;1.04;100.00;102971.09;4918464;28;20023;-76
2022/01/18 10:01:52;;;;;;;58.60;8.27;;;2.40;99.90;;;1.12;100.00;102977.38;4924617;28;20042;-76
2022/01/18 10:04:22;;;;;;;75.60;8.68;;;2.50;99.90;;;1.21;100.00;102969.00;4972296;28;20056;-76
2022/01/18 10:06:56;;;;;;;60.97;7.82;;;2.60;99.90;;;1.31;100.00;102965.78;4931154;28;20055;-77
2022/01/18 10:09:26;;;;;;;78.50;7.57;;;2.70;99.90;;;1.37;100.00;102960.78;4968384;28;20023;-80
2022/01/18 10:12:13;;;;;;;62.70;7.80;;;2.80;99.90;;;1.48;100.00;102968.84;4939818;28;20106;-76
2022/01/18 10:14:41;;;;;;;;;;;2.80;99.90;;;1.56;100.00;102969.06;4969724;28;20034;-76
2022/01/18 10:17:10;;;;;;;69.97;7.20;;;3.00;99.90;;;1.70;100.00;102977.22;4935925;28;19911;-76
2022/01/18 10:19:51;;;;;;;236.00;37.03;;;3.20;99.90;;;1.92;100.00;102976.03;4917024;28;20039;-76
2022/01/18 10:22:25;;;;;;;74.07;7.97;;;3.40;99.90;;;2.10;100.00;102973.91;4929002;28;20042;-76
2022/01/18 10:24:54;;;;;;;151.73;130.00;;;3.50;99.90;;;2.30;100.00;102976.09;4940051;28;20051;-75
2022/01/18 10:27:20;;;;;;;37.83;6.75;;;3.70;99.90;;;2.44;100.00;102978.19;4939479;28;20026;-76
2022/01/18 10:29:50;;;;;;;43.45;5.70;;;3.80;99.90;;;2.56;100.00;102972.38;4924419;28;20519;-76
2022/01/18 10:32:22;;;;;;;51.53;7.35;;;3.90;99.90;;;2.65;100.00;102977.78;4933397;28;20114;-76
2022/01/18 10:37:20;;;;;;;41.15;5.88;;;4.10;99.90;;;2.81;100.00;102991.16;4926577;28;20074;-76
2022/01/18 10:39:55;;;;;;;39.70;5.82;;;4.20;99.90;;;2.99;100.00;102991.53;4917942;28;20041;-76
2022/01/18 10:42:39;;;;;;;43.63;6.57;;;4.30;99.90;;;3.20;100.00;102992.84;4951425;28;20038;-76
2022/01/18 10:45:15;;;;;;;25.42;5.43;;;4.40;99.90;;;3.32;100.00;102980.03;4938662;28;20036;-77
2022/01/18 10:48:12;;;;;;;38.15;5.80;;;4.50;99.90;;;3.38;100.00;102974.09;4917244;28;20054;-77
2022/01/18 10:50:44;;;;;;;40.22;5.85;;;4.70;99.90;;;3.53;100.00;102983.91;4963107;28;20030;-77
2022/01/18 10:53:16;;;;;;;40.65;4.93;;;4.70;99.90;;;3.63;100.00;102994.53;4942879;28;20033;-77
2022/01/18 10:55:45;;;;;;;47.05;6.07;;;4.80;99.90;;;3.69;100.00;103004.19;4945284;28;20023;-77
2022/01/18 10:58:14;;;;;;;40.35;5.70;;;4.90;99.90;;;3.72;100.00;103006.00;4959570;28;20423;-77
2022/01/18 11:00:41;;;;;;;41.65;6.05;;;4.90;99.90;;;3.73;100.00;103019.03;4984532;28;20039;-76
2022/01/18 11:03:07;;;;;;;51.00;6.90;;;5.00;99.90;;;3.74;100.00;103007.75;4955852;28;20078;-76
2022/01/18 11:05:38;;;;;;;32.38;6.35;;;5.00;99.90;;;3.80;100.00;102992.25;4938618;28;20043;-77
2022/01/18 11:08:07;;;;;;;37.95;6.22;;;5.10;99.90;;;3.87;100.00;102988.00;4949669;28;20041;-77
2022/01/18 11:10:41;;;;;;;32.42;5.32;;;5.10;99.90;;;3.92;100.00;102993.31;4934889;28;20142;-77
2022/01/18 11:13:20;;;;;;;34.08;5.45;;;5.20;99.90;;;3.95;100.00;103001.16;4935231;28;20044;-77
2022/01/18 11:15:49;;;;;;;33.90;5.43;;;5.20;99.90;;;4.04;100.00;102997.00;4910174;28;20027;-76
2022/01/18 11:18:18;;;;;;;41.90;5.97;;;5.30;99.90;;;4.18;100.00;103004.16;4944376;28;20375;-76